createdAt,value
2019-03-16T00:00:27.613Z,99.99
2019-03-16T00:01:27.623Z,99.99
2019-03-16T00:02:27.579Z,99.99
2019-03-16T00:03:27.667Z,99.99
2019-03-16T00:04:27.566Z,99.99
2019-03-16T00:05:27.585Z,99.99
2019-03-16T00:06:27.576Z,99.99
2019-03-16T00:07:32.806Z,99.99
2019-03-16T00:08:28.509Z,99.99
2019-03-16T00:09:27.525Z,99.99
2019-03-16T00:10:27.487Z,99.99
2019-03-16T00:11:27.578Z,99.99
2019-03-16T00:12:27.684Z,99.99
2019-03-16T00:13:27.485Z,99.99
2019-03-16T00:14:27.442Z,99.99
2019-03-16T00:15:27.431Z,99.99
2019-03-16T00:16:27.481Z,99.99
2019-03-16T00:17:27.437Z,99.99
2019-03-16T00:18:27.412Z,99.99
2019-03-16T00:19:27.445Z,99.99
2019-03-16T00:20:27.378Z,99.99
2019-03-16T00:21:27.379Z,99.99
2019-03-16T00:22:27.362Z,99.99
2019-03-16T00:23:27.405Z,99.99
2019-03-16T00:24:27.335Z,99.99
2019-03-16T00:25:27.372Z,99.99
2019-03-16T00:26:27.361Z,99.99
2019-03-16T00:27:27.423Z,99.99
2019-03-16T00:28:27.320Z,99.99
2019-03-16T00:29:27.291Z,99.99
2019-03-16T00:30:27.268Z,99.99
2019-03-16T00:31:27.285Z,99.99
2019-03-16T00:32:27.258Z,99.99
2019-03-16T00:33:27.288Z,99.99
2019-03-16T00:34:27.287Z,99.99
2019-03-16T00:35:27.271Z,99.99
2019-03-16T00:36:27.225Z,99.99
2019-03-16T00:37:27.199Z,99.99
2019-03-16T00:38:27.210Z,99.99
2019-03-16T00:39:27.179Z,99.99
2019-03-16T00:40:27.183Z,99.99
2019-03-16T00:41:27.223Z,99.99
2019-03-16T00:42:27.169Z,99.99
2019-03-16T00:43:27.132Z,99.99
2019-03-16T00:44:27.122Z,99.99
2019-03-16T00:45:27.140Z,99.99
2019-03-16T00:46:27.114Z,99.99
2019-03-16T00:47:27.144Z,99.99
2019-03-16T00:48:27.078Z,99.99
2019-03-16T00:49:27.068Z,99.99
2019-03-16T00:50:27.051Z,99.99
2019-03-16T00:51:27.134Z,99.99
2019-03-16T00:52:27.083Z,99.99
2019-03-16T00:53:27.022Z,99.99
2019-03-16T00:54:27.018Z,99.99
2019-03-16T00:55:27.036Z,99.99
2019-03-16T00:56:27.015Z,99.99
2019-03-16T00:57:27.008Z,99.99
2019-03-16T00:58:27.004Z,99.99
2019-03-16T00:59:27.005Z,99.99
2019-03-16T01:00:26.943Z,99.99
2019-03-16T01:01:26.998Z,99.99
2019-03-16T01:02:27.684Z,99.99
2019-03-16T01:03:26.926Z,99.99
2019-03-16T01:04:26.968Z,99.99
2019-03-16T01:05:26.895Z,99.99
2019-03-16T01:06:26.922Z,99.99
2019-03-16T01:07:26.892Z,99.99
2019-03-16T01:08:26.923Z,99.99
2019-03-16T01:09:26.860Z,99.99
2019-03-16T01:10:26.885Z,99.99
2019-03-16T01:11:26.824Z,99.99
2019-03-16T01:12:26.884Z,99.99
2019-03-16T01:13:26.816Z,99.99
2019-03-16T01:14:26.807Z,99.99
2019-03-16T01:15:26.819Z,99.99
2019-03-16T01:16:26.777Z,99.99
2019-03-16T01:17:26.847Z,99.99
2019-03-16T01:18:26.774Z,99.99
2019-03-16T01:19:26.738Z,99.99
2019-03-16T01:20:26.827Z,99.99
2019-03-16T01:21:26.746Z,99.99
2019-03-16T01:22:26.783Z,99.99
2019-03-16T01:23:26.715Z,99.99
2019-03-16T01:24:26.752Z,99.99
2019-03-16T01:25:26.722Z,99.99
2019-03-16T01:26:26.665Z,99.99
2019-03-16T01:27:26.690Z,99.99
2019-03-16T01:28:26.647Z,99.99
2019-03-16T01:29:26.659Z,99.99
2019-03-16T01:30:26.679Z,99.99
2019-03-16T01:31:26.735Z,99.99
2019-03-16T01:32:39.749Z,99.99
2019-03-16T01:33:27.595Z,99.99
2019-03-16T01:34:26.626Z,99.99
2019-03-16T01:35:26.573Z,99.99
2019-03-16T01:36:26.608Z,99.99
2019-03-16T01:37:26.576Z,99.99
2019-03-16T01:38:26.682Z,99.99
2019-03-16T01:39:26.578Z,99.99
2019-03-16T01:40:26.652Z,99.99
2019-03-16T01:41:26.598Z,99.99
2019-03-16T01:42:26.554Z,99.99
2019-03-16T01:43:26.547Z,99.99
2019-03-16T01:44:26.508Z,99.99
2019-03-16T01:45:26.501Z,99.99
2019-03-16T01:46:26.465Z,99.99
2019-03-16T01:47:26.463Z,99.99
2019-03-16T01:48:26.461Z,99.99
2019-03-16T01:49:26.478Z,99.99
2019-03-16T01:50:26.472Z,99.99
2019-03-16T01:51:26.403Z,99.99
2019-03-16T01:52:26.464Z,99.99
2019-03-16T01:53:26.423Z,99.99
2019-03-16T01:54:26.372Z,99.99
2019-03-16T01:55:26.431Z,99.99
2019-03-16T01:56:26.417Z,99.99
2019-03-16T01:57:26.438Z,99.99
2019-03-16T01:58:26.333Z,99.99
2019-03-16T01:59:26.449Z,99.99
2019-03-16T02:00:26.329Z,99.99
2019-03-16T02:01:26.328Z,99.99
2019-03-16T02:02:26.310Z,99.99
2019-03-16T02:03:26.324Z,99.99
2019-03-16T02:04:26.328Z,99.99
2019-03-16T02:05:26.289Z,99.99
2019-03-16T02:06:26.247Z,99.99
2019-03-16T02:07:26.281Z,99.99
2019-03-16T02:08:26.226Z,99.99
2019-03-16T02:09:26.215Z,99.99
2019-03-16T02:10:26.224Z,99.99
2019-03-16T02:11:26.310Z,99.99
2019-03-16T02:12:26.258Z,99.99
2019-03-16T02:13:26.177Z,99.99
2019-03-16T02:14:26.215Z,99.99
2019-03-16T02:15:26.182Z,99.99
2019-03-16T02:16:26.222Z,99.99
2019-03-16T02:17:26.195Z,99.99
2019-03-16T02:18:26.230Z,99.99
2019-03-16T02:19:26.392Z,99.99
2019-03-16T02:20:26.103Z,99.99
2019-03-16T02:21:26.093Z,99.99
2019-03-16T02:22:26.150Z,99.99
2019-03-16T02:23:26.164Z,99.99
2019-03-16T02:24:26.090Z,99.99
2019-03-16T02:25:26.114Z,99.99
2019-03-16T02:26:26.094Z,99.99
2019-03-16T02:27:26.108Z,99.99
2019-03-16T02:28:26.048Z,99.99
2019-03-16T02:29:26.008Z,99.99
2019-03-16T02:30:26.103Z,99.99
2019-03-16T02:31:26.097Z,99.99
2019-03-16T02:32:26.128Z,99.99
2019-03-16T02:33:25.982Z,99.99
2019-03-16T02:34:26.026Z,99.99
2019-03-16T02:35:25.952Z,99.99
2019-03-16T02:36:25.940Z,99.99
2019-03-16T02:37:25.939Z,99.99
2019-03-16T02:38:25.936Z,99.99
2019-03-16T02:39:25.915Z,99.99
2019-03-16T02:40:25.907Z,99.99
2019-03-16T02:41:25.925Z,99.99
2019-03-16T02:42:25.898Z,99.99
2019-03-16T02:43:25.890Z,99.99
2019-03-16T02:44:25.853Z,99.99
2019-03-16T02:45:25.886Z,99.99
2019-03-16T02:46:25.867Z,99.99
2019-03-16T02:47:25.872Z,99.99
2019-03-16T02:48:25.850Z,99.99
2019-03-16T02:49:25.889Z,99.99
2019-03-16T02:50:25.783Z,99.99
2019-03-16T02:51:25.778Z,99.99
2019-03-16T02:52:25.818Z,99.99
2019-03-16T02:53:25.782Z,99.99
2019-03-16T02:54:25.785Z,99.99
2019-03-16T02:55:25.743Z,99.99
2019-03-16T02:56:25.807Z,99.99
2019-03-16T02:57:25.769Z,99.99
2019-03-16T02:58:25.704Z,99.99
2019-03-16T02:59:25.726Z,99.99
2019-03-16T03:00:25.692Z,99.99
2019-03-16T03:01:25.730Z,99.99
2019-03-16T03:02:25.707Z,99.99
2019-03-16T03:03:29.948Z,99.99
2019-03-16T03:04:25.656Z,99.99
2019-03-16T03:05:25.684Z,99.99
2019-03-16T03:06:25.618Z,99.99
2019-03-16T03:07:25.641Z,99.99
2019-03-16T03:08:25.635Z,99.99
2019-03-16T03:09:25.603Z,99.99
2019-03-16T03:10:25.580Z,99.99
2019-03-16T03:11:25.659Z,99.99
2019-03-16T03:12:25.575Z,99.99
2019-03-16T03:13:25.567Z,99.99
2019-03-16T03:14:25.534Z,99.99
2019-03-16T03:15:25.541Z,99.99
2019-03-16T03:16:25.580Z,99.99
2019-03-16T03:17:25.549Z,99.99
2019-03-16T03:18:25.560Z,99.99
2019-03-16T03:19:25.585Z,99.99
2019-03-16T03:20:25.484Z,99.99
2019-03-16T03:21:25.455Z,99.99
2019-03-16T03:22:25.513Z,99.99
2019-03-16T03:23:25.492Z,99.99
2019-03-16T03:24:25.484Z,99.99
2019-03-16T03:25:25.476Z,99.99
2019-03-16T03:26:25.474Z,99.99
2019-03-16T03:27:25.506Z,99.99
2019-03-16T03:28:25.493Z,99.99
2019-03-16T03:29:25.590Z,99.99
2019-03-16T03:30:25.424Z,99.99
2019-03-16T03:31:25.443Z,99.99
2019-03-16T03:32:25.410Z,99.99
2019-03-16T03:33:25.485Z,99.99
2019-03-16T03:34:25.336Z,99.99
2019-03-16T03:35:29.281Z,99.99
2019-03-16T03:36:25.389Z,99.99
2019-03-16T03:37:25.309Z,99.99
2019-03-16T03:38:25.299Z,99.99
2019-03-16T03:39:25.319Z,99.99
2019-03-16T03:40:25.291Z,99.99
2019-03-16T03:41:25.259Z,99.99
2019-03-16T03:42:25.321Z,99.99
2019-03-16T03:43:25.282Z,99.99
2019-03-16T03:44:25.225Z,99.99
2019-03-16T03:45:25.335Z,99.99
2019-03-16T03:46:25.219Z,99.99
2019-03-16T03:47:25.226Z,99.99
2019-03-16T03:48:25.252Z,99.99
2019-03-16T03:49:25.187Z,99.99
2019-03-16T03:50:25.158Z,99.99
2019-03-16T03:51:25.197Z,99.99
2019-03-16T03:52:25.139Z,99.99
2019-03-16T03:53:25.144Z,99.99
2019-03-16T03:54:25.120Z,99.99
2019-03-16T03:55:25.146Z,99.99
2019-03-16T03:56:25.092Z,99.99
2019-03-16T03:57:25.087Z,99.99
2019-03-16T03:58:25.165Z,99.99
2019-03-16T03:59:25.068Z,99.99
2019-03-16T04:00:25.265Z,99.99
2019-03-16T04:01:25.092Z,99.99
2019-03-16T04:02:25.079Z,99.99
2019-03-16T04:03:25.143Z,99.99
2019-03-16T04:04:25.018Z,99.99
2019-03-16T04:05:25.072Z,99.99
2019-03-16T04:06:25.019Z,99.99
2019-03-16T04:07:25.015Z,99.99
2019-03-16T04:08:25.008Z,99.99
2019-03-16T04:09:24.964Z,99.99
2019-03-16T04:10:24.945Z,99.99
2019-03-16T04:11:24.934Z,99.99
2019-03-16T04:12:24.940Z,99.99
2019-03-16T04:13:24.970Z,99.99
2019-03-16T04:14:24.898Z,99.99
2019-03-16T04:15:24.952Z,99.99
2019-03-16T04:16:24.925Z,99.99
2019-03-16T04:17:24.884Z,99.99
2019-03-16T04:18:24.896Z,99.99
2019-03-16T04:19:24.880Z,99.99
2019-03-16T04:20:24.952Z,99.99
2019-03-16T04:21:24.926Z,99.99
2019-03-16T04:22:24.851Z,99.99
2019-03-16T04:23:24.816Z,99.99
2019-03-16T04:24:25.161Z,99.99
2019-03-16T04:25:24.814Z,99.99
2019-03-16T04:26:24.787Z,99.99
2019-03-16T04:27:24.813Z,99.99
2019-03-16T04:28:24.758Z,99.99
2019-03-16T04:29:24.814Z,99.99
2019-03-16T04:30:24.758Z,99.99
2019-03-16T04:31:24.777Z,99.99
2019-03-16T04:32:24.741Z,99.99
2019-03-16T04:33:24.739Z,99.99
2019-03-16T04:34:29.593Z,99.99
2019-03-16T04:35:25.682Z,99.99
2019-03-16T04:36:24.677Z,99.99
2019-03-16T04:37:24.718Z,99.99
2019-03-16T04:38:24.652Z,99.99
2019-03-16T04:39:24.742Z,99.99
2019-03-16T04:40:24.649Z,99.99
2019-03-16T04:41:24.669Z,99.99
2019-03-16T04:42:24.611Z,99.99
2019-03-16T04:43:24.635Z,99.99
2019-03-16T04:44:24.614Z,99.99
2019-03-16T04:45:24.777Z,99.99
2019-03-16T04:46:24.570Z,99.99
2019-03-16T04:47:24.569Z,99.99
2019-03-16T04:48:24.577Z,99.99
2019-03-16T04:49:24.563Z,99.99
2019-03-16T04:50:24.527Z,99.99
2019-03-16T04:51:24.563Z,99.99
2019-03-16T04:52:24.535Z,99.99
2019-03-16T04:53:24.551Z,99.99
2019-03-16T04:54:24.523Z,99.99
2019-03-16T04:55:24.470Z,99.99
2019-03-16T04:56:24.461Z,99.99
2019-03-16T04:57:24.451Z,99.99
2019-03-16T04:58:24.495Z,99.99
2019-03-16T04:59:24.447Z,99.99
2019-03-16T05:00:24.419Z,99.99
2019-03-16T05:01:24.409Z,99.99
2019-03-16T05:02:24.436Z,99.99
2019-03-16T05:03:24.435Z,99.99
2019-03-16T05:04:24.406Z,99.99
2019-03-16T05:05:24.408Z,99.99
2019-03-16T05:06:24.357Z,99.99
2019-03-16T05:07:24.360Z,99.99
2019-03-16T05:08:24.335Z,99.99
2019-03-16T05:09:24.373Z,99.99
2019-03-16T05:10:24.329Z,99.99
2019-03-16T05:11:24.377Z,99.99
2019-03-16T05:12:24.292Z,99.99
2019-03-16T05:13:24.291Z,99.99
2019-03-16T05:14:24.383Z,99.99
2019-03-16T05:15:24.278Z,99.99
2019-03-16T05:16:24.313Z,99.99
2019-03-16T05:17:24.261Z,99.99
2019-03-16T05:18:24.231Z,99.99
2019-03-16T05:19:24.223Z,99.99
2019-03-16T05:20:24.287Z,99.99
2019-03-16T05:21:24.207Z,99.99
2019-03-16T05:22:24.236Z,99.99
2019-03-16T05:23:24.192Z,99.99
2019-03-16T05:24:24.205Z,99.99
2019-03-16T05:25:24.208Z,99.99
2019-03-16T05:26:24.172Z,99.99
2019-03-16T05:27:24.164Z,99.99
2019-03-16T05:28:24.122Z,99.99
2019-03-16T05:29:24.124Z,99.99
2019-03-16T05:30:24.118Z,99.99
2019-03-16T05:31:24.118Z,99.99
2019-03-16T05:32:24.084Z,99.99
2019-03-16T05:33:24.085Z,99.99
2019-03-16T05:34:24.062Z,99.99
2019-03-16T05:35:24.129Z,99.99
2019-03-16T05:36:24.041Z,99.99
2019-03-16T05:37:24.054Z,99.99
2019-03-16T05:38:24.020Z,99.99
2019-03-16T05:39:24.006Z,99.99
2019-03-16T05:40:24.075Z,99.99
2019-03-16T05:41:23.987Z,99.99
2019-03-16T05:42:24.000Z,99.99
2019-03-16T05:43:23.969Z,99.99
2019-03-16T05:44:24.030Z,99.99
2019-03-16T05:45:23.970Z,99.99
2019-03-16T05:46:23.957Z,99.99
2019-03-16T05:47:24.013Z,99.99
2019-03-16T05:48:23.915Z,99.99
2019-03-16T05:49:23.902Z,99.99
2019-03-16T05:50:23.989Z,99.99
2019-03-16T05:51:23.913Z,99.99
2019-03-16T05:52:23.912Z,99.99
2019-03-16T05:53:23.946Z,99.99
2019-03-16T05:54:23.854Z,99.99
2019-03-16T05:55:24.010Z,99.99
2019-03-16T05:56:23.847Z,99.99
2019-03-16T05:57:23.855Z,99.99
2019-03-16T05:58:23.836Z,99.99
2019-03-16T05:59:23.804Z,99.99
2019-03-16T06:00:23.806Z,99.99
2019-03-16T06:01:23.811Z,99.99
2019-03-16T06:02:23.789Z,99.99
2019-03-16T06:03:23.774Z,99.99
2019-03-16T06:04:23.773Z,99.99
2019-03-16T06:05:23.783Z,99.99
2019-03-16T06:06:23.730Z,99.99
2019-03-16T06:07:23.808Z,99.99
2019-03-16T06:08:23.722Z,99.99
2019-03-16T06:09:23.785Z,99.99
2019-03-16T06:10:23.757Z,99.99
2019-03-16T06:11:23.670Z,99.99
2019-03-16T06:12:23.660Z,99.99
2019-03-16T06:13:23.649Z,99.99
2019-03-16T06:14:23.659Z,99.99
2019-03-16T06:15:23.667Z,99.99
2019-03-16T06:16:23.657Z,99.99
2019-03-16T06:17:23.606Z,99.99
2019-03-16T06:18:23.596Z,99.99
2019-03-16T06:19:23.587Z,99.99
2019-03-16T06:20:23.600Z,99.99
2019-03-16T06:21:23.594Z,99.99
2019-03-16T06:22:23.593Z,99.99
2019-03-16T06:23:23.548Z,99.99
2019-03-16T06:24:23.529Z,99.99
2019-03-16T06:25:23.620Z,99.99
2019-03-16T06:26:23.584Z,99.99
2019-03-16T06:27:23.548Z,99.99
2019-03-16T06:28:23.491Z,99.99
2019-03-16T06:29:23.535Z,99.99
2019-03-16T06:30:23.492Z,99.99
2019-03-16T06:31:23.494Z,99.99
2019-03-16T06:32:23.481Z,99.99
2019-03-16T06:33:23.499Z,99.99
2019-03-16T06:34:23.427Z,99.99
2019-03-16T06:35:27.807Z,99.99
2019-03-16T06:36:24.403Z,99.99
2019-03-16T06:37:23.415Z,99.99
2019-03-16T06:38:23.398Z,99.99
2019-03-16T06:39:23.403Z,99.99
2019-03-16T06:40:23.364Z,99.99
2019-03-16T06:41:23.394Z,99.99
2019-03-16T06:42:23.345Z,99.99
2019-03-16T06:43:23.336Z,99.99
2019-03-16T06:44:23.325Z,99.99
2019-03-16T06:45:23.326Z,99.99
2019-03-16T06:46:23.319Z,99.99
2019-03-16T06:47:23.377Z,99.99
2019-03-16T06:48:23.312Z,99.99
2019-03-16T06:49:23.265Z,99.99
2019-03-16T06:50:23.293Z,99.99
2019-03-16T06:51:23.267Z,99.99
2019-03-16T06:52:23.306Z,99.99
2019-03-16T06:53:23.276Z,99.99
2019-03-16T06:54:23.246Z,99.99
2019-03-16T06:55:23.238Z,99.99
2019-03-16T06:56:23.326Z,99.99
2019-03-16T06:57:23.279Z,99.99
2019-03-16T06:58:23.259Z,99.99
2019-03-16T06:59:23.192Z,99.99
2019-03-16T07:00:23.191Z,99.99
2019-03-16T07:01:23.313Z,99.99
2019-03-16T07:02:23.152Z,99.99
2019-03-16T07:03:23.128Z,99.99
2019-03-16T07:04:23.171Z,99.99
2019-03-16T07:05:25.046Z,99.99
2019-03-16T07:06:24.106Z,99.99
2019-03-16T07:07:23.077Z,99.99
2019-03-16T07:08:23.115Z,99.99
2019-03-16T07:09:23.050Z,99.99
2019-03-16T07:10:23.085Z,99.99
2019-03-16T07:11:23.046Z,99.99
2019-03-16T07:12:23.018Z,99.99
2019-03-16T07:13:23.075Z,99.99
2019-03-16T07:14:23.023Z,99.99
2019-03-16T07:15:22.994Z,99.99
2019-03-16T07:16:23.223Z,99.99
2019-03-16T07:17:23.063Z,99.99
2019-03-16T07:18:22.961Z,99.99
2019-03-16T07:19:23.059Z,99.99
2019-03-16T07:20:22.931Z,99.99
2019-03-16T07:21:23.027Z,99.99
2019-03-16T07:22:22.927Z,99.99
2019-03-16T07:23:23.106Z,99.99
2019-03-16T07:24:22.891Z,99.99
2019-03-16T07:25:22.888Z,99.99
2019-03-16T07:26:22.958Z,99.99
2019-03-16T07:27:26.335Z,99.99
2019-03-16T07:28:22.914Z,99.99
2019-03-16T07:29:22.844Z,99.99
2019-03-16T07:30:22.842Z,99.99
2019-03-16T07:31:22.896Z,99.99
2019-03-16T07:32:22.851Z,99.99
2019-03-16T07:33:22.836Z,99.99
2019-03-16T07:34:22.858Z,99.99
2019-03-16T07:35:22.770Z,99.99
2019-03-16T07:36:22.825Z,99.99
2019-03-16T07:37:22.758Z,99.99
2019-03-16T07:38:22.783Z,99.99
2019-03-16T07:39:22.766Z,99.99
2019-03-16T07:40:22.726Z,99.99
2019-03-16T07:41:22.828Z,99.99
2019-03-16T07:42:22.719Z,99.99
2019-03-16T07:43:22.717Z,99.99
2019-03-16T07:44:22.683Z,99.99
2019-03-16T07:45:22.687Z,99.99
2019-03-16T07:46:22.772Z,99.99
2019-03-16T07:47:22.647Z,99.99
2019-03-16T07:48:22.639Z,99.99
2019-03-16T07:49:22.666Z,99.99
2019-03-16T07:50:22.643Z,99.99
2019-03-16T07:51:22.657Z,99.99
2019-03-16T07:52:22.626Z,99.99
2019-03-16T07:53:22.636Z,99.99
2019-03-16T07:54:22.678Z,99.99
2019-03-16T07:55:22.592Z,99.99
2019-03-16T07:56:22.596Z,99.99
2019-03-16T07:57:22.536Z,99.99
2019-03-16T07:58:22.532Z,99.99
2019-03-16T07:59:22.557Z,99.99
2019-03-16T08:00:22.553Z,99.99
2019-03-16T08:01:22.520Z,99.99
2019-03-16T08:02:22.489Z,99.99
2019-03-16T08:03:22.517Z,99.99
2019-03-16T08:04:22.463Z,99.99
2019-03-16T08:05:22.510Z,99.99
2019-03-16T08:06:22.475Z,99.99
2019-03-16T08:07:22.484Z,99.99
2019-03-16T08:08:22.486Z,99.99
2019-03-16T08:09:22.478Z,99.99
2019-03-16T08:10:22.410Z,99.99
2019-03-16T08:11:22.471Z,99.99
2019-03-16T08:12:22.399Z,99.99
2019-03-16T08:13:22.365Z,99.99
2019-03-16T08:14:22.366Z,99.99
2019-03-16T08:15:22.492Z,99.99
2019-03-16T08:16:22.545Z,99.99
2019-03-16T08:17:22.368Z,99.99
2019-03-16T08:18:22.366Z,99.99
2019-03-16T08:19:22.357Z,99.99
2019-03-16T08:20:22.396Z,99.99
2019-03-16T08:21:22.312Z,99.99
2019-03-16T08:22:22.289Z,99.99
2019-03-16T08:23:22.278Z,99.99
2019-03-16T08:24:22.413Z,99.99
2019-03-16T08:25:22.305Z,99.99
2019-03-16T08:26:22.290Z,99.99
2019-03-16T08:27:22.274Z,99.99
2019-03-16T08:28:22.234Z,99.99
2019-03-16T08:29:22.279Z,99.99
2019-03-16T08:30:23.713Z,99.99
2019-03-16T08:31:22.198Z,99.99
2019-03-16T08:32:25.233Z,99.99
2019-03-16T08:33:22.198Z,99.99
2019-03-16T08:34:22.256Z,99.99
2019-03-16T08:35:22.132Z,99.99
2019-03-16T08:36:22.120Z,99.99
2019-03-16T08:37:22.181Z,99.99
2019-03-16T08:38:22.149Z,99.99
2019-03-16T08:39:22.179Z,99.99
2019-03-16T08:40:22.166Z,99.99
2019-03-16T08:41:22.112Z,99.99
2019-03-16T08:42:22.161Z,99.99
2019-03-16T08:43:22.106Z,99.99
2019-03-16T08:44:22.049Z,99.99
2019-03-16T08:45:22.075Z,99.99
2019-03-16T08:46:22.118Z,99.99
2019-03-16T08:47:22.072Z,99.99
2019-03-16T08:48:23.350Z,99.99
2019-03-16T08:49:22.060Z,99.99
2019-03-16T08:50:21.973Z,99.99
2019-03-16T08:51:21.967Z,99.99
2019-03-16T08:52:21.996Z,99.99
2019-03-16T08:53:23.042Z,99.99
2019-03-16T08:54:21.930Z,99.99
2019-03-16T08:55:21.994Z,99.99
2019-03-16T08:56:21.959Z,99.99
2019-03-16T08:57:21.976Z,99.99
2019-03-16T08:58:21.947Z,99.99
2019-03-16T08:59:24.354Z,99.99
2019-03-16T09:00:21.967Z,99.99
2019-03-16T09:01:21.938Z,99.99
2019-03-16T09:02:21.916Z,99.99
2019-03-16T09:03:21.879Z,99.99
2019-03-16T09:04:21.838Z,99.99
2019-03-16T09:05:21.916Z,99.99
2019-03-16T09:06:21.801Z,99.99
2019-03-16T09:07:21.856Z,99.99
2019-03-16T09:08:21.862Z,99.99
2019-03-16T09:09:21.769Z,99.99
2019-03-16T09:10:21.764Z,99.99
2019-03-16T09:11:21.824Z,99.99
2019-03-16T09:12:21.786Z,99.99
2019-03-16T09:13:21.725Z,99.99
2019-03-16T09:14:21.717Z,99.99
2019-03-16T09:15:21.717Z,99.99
2019-03-16T09:16:21.717Z,99.99
2019-03-16T09:17:21.721Z,99.99
2019-03-16T09:18:21.685Z,99.99
2019-03-16T09:19:21.668Z,99.99
2019-03-16T09:20:21.713Z,99.99
2019-03-16T09:21:21.637Z,99.99
2019-03-16T09:22:21.660Z,99.99
2019-03-16T09:23:21.627Z,99.99
2019-03-16T09:24:21.605Z,99.99
2019-03-16T09:25:21.601Z,99.99
2019-03-16T09:26:21.640Z,99.99
2019-03-16T09:27:30.594Z,99.99
2019-03-16T09:28:22.613Z,99.99
2019-03-16T09:29:21.562Z,99.99
2019-03-16T09:30:21.600Z,99.99
2019-03-16T09:31:21.567Z,99.99
2019-03-16T09:32:21.534Z,99.99
2019-03-16T09:33:21.813Z,99.99
2019-03-16T09:34:21.570Z,99.99
2019-03-16T09:35:21.489Z,99.99
2019-03-16T09:36:21.488Z,99.99
2019-03-16T09:37:21.479Z,99.99
2019-03-16T09:38:21.498Z,99.99
2019-03-16T09:39:21.516Z,99.99
2019-03-16T09:40:21.714Z,99.99
2019-03-16T09:41:21.440Z,99.99
2019-03-16T09:42:21.477Z,99.99
2019-03-16T09:43:21.441Z,99.99
2019-03-16T09:44:21.472Z,99.99
2019-03-16T09:45:21.470Z,99.99
2019-03-16T09:46:21.456Z,99.99
2019-03-16T09:47:21.370Z,99.99
2019-03-16T09:48:21.466Z,99.99
2019-03-16T09:49:21.425Z,99.99
2019-03-16T09:50:21.361Z,99.99
2019-03-16T09:51:21.325Z,99.99
2019-03-16T09:52:21.328Z,99.99
2019-03-16T09:53:21.417Z,99.99
2019-03-16T09:54:21.287Z,99.99
2019-03-16T09:55:21.284Z,99.99
2019-03-16T09:56:21.321Z,99.99
2019-03-16T09:57:21.307Z,99.99
2019-03-16T09:58:30.788Z,99.99
2019-03-16T09:59:22.281Z,99.99
2019-03-16T10:00:21.235Z,99.99
2019-03-16T10:01:21.370Z,99.99
2019-03-16T10:02:21.206Z,99.99
2019-03-16T10:03:21.239Z,99.99
2019-03-16T10:04:21.266Z,99.99
2019-03-16T10:05:21.223Z,99.99
2019-03-16T10:06:21.266Z,99.99
2019-03-16T10:07:21.162Z,99.99
2019-03-16T10:08:21.160Z,99.99
2019-03-16T10:09:21.150Z,99.99
2019-03-16T10:10:21.214Z,99.99
2019-03-16T10:11:21.127Z,99.99
2019-03-16T10:12:21.097Z,99.99
2019-03-16T10:13:21.146Z,99.99
2019-03-16T10:14:21.083Z,99.99
2019-03-16T10:15:21.109Z,99.99
2019-03-16T10:16:21.091Z,99.99
2019-03-16T10:17:21.042Z,99.99
2019-03-16T10:18:21.077Z,99.99
2019-03-16T10:19:21.070Z,99.99
2019-03-16T10:20:21.079Z,99.99
2019-03-16T10:21:21.066Z,99.99
2019-03-16T10:22:21.243Z,99.99
2019-03-16T10:23:21.005Z,99.99
2019-03-16T10:24:21.033Z,99.99
2019-03-16T10:25:20.977Z,99.99
2019-03-16T10:26:20.961Z,99.99
2019-03-16T10:27:20.971Z,99.99
2019-03-16T10:28:20.994Z,99.99
2019-03-16T10:29:20.920Z,99.99
2019-03-16T10:30:20.919Z,99.99
2019-03-16T10:31:21.059Z,99.99
2019-03-16T10:32:20.917Z,99.99
2019-03-16T10:33:20.959Z,99.99
2019-03-16T10:34:20.871Z,99.99
2019-03-16T10:35:20.889Z,99.99
2019-03-16T10:36:20.841Z,99.99
2019-03-16T10:37:20.914Z,99.98
2019-03-16T10:38:20.925Z,99.98
2019-03-16T10:39:20.814Z,99.99
2019-03-16T10:40:20.801Z,99.99
2019-03-16T10:41:20.803Z,99.48
2019-03-16T10:42:20.828Z,99.42
2019-03-16T10:43:21.205Z,99.52
2019-03-16T10:44:20.846Z,98.80
2019-03-16T10:45:20.885Z,98.91
2019-03-16T10:46:20.831Z,99.01
2019-03-16T10:47:20.724Z,98.55
2019-03-16T10:48:20.786Z,98.50
2019-03-16T10:49:20.779Z,98.55
2019-03-16T10:50:20.753Z,98.50
2019-03-16T10:51:20.688Z,99.42
2019-03-16T10:52:20.720Z,98.91
2019-03-16T10:53:20.788Z,99.42
2019-03-16T10:54:20.775Z,99.11
2019-03-16T10:55:20.639Z,99.11
2019-03-16T10:56:20.642Z,99.38
2019-03-16T10:57:20.726Z,98.96
2019-03-16T10:58:20.675Z,98.76
2019-03-16T10:59:20.652Z,98.76
2019-03-16T11:00:20.602Z,98.51
2019-03-16T11:01:20.608Z,99.02
2019-03-16T11:02:20.620Z,97.85
2019-03-16T11:03:20.658Z,97.95
2019-03-16T11:04:20.656Z,98.05
2019-03-16T11:05:20.598Z,97.49
2019-03-16T11:06:20.571Z,97.39
2019-03-16T11:07:20.553Z,97.23
2019-03-16T11:08:20.540Z,96.92
2019-03-16T11:09:20.526Z,97.13
2019-03-16T11:10:20.506Z,97.28
2019-03-16T11:11:20.502Z,97.28
2019-03-16T11:12:20.510Z,97.83
2019-03-16T11:13:20.446Z,98.04
2019-03-16T11:14:20.503Z,98.04
2019-03-16T11:15:20.522Z,97.99
2019-03-16T11:16:20.444Z,97.94
2019-03-16T11:17:20.441Z,98.45
2019-03-16T11:18:20.439Z,98.55
2019-03-16T11:19:20.435Z,98.29
2019-03-16T11:20:20.372Z,97.99
2019-03-16T11:21:20.365Z,98.08
2019-03-16T11:22:20.422Z,97.99
2019-03-16T11:23:20.396Z,98.80
2019-03-16T11:24:20.358Z,99.01
2019-03-16T11:25:20.557Z,98.60
2019-03-16T11:26:20.305Z,98.39
2019-03-16T11:27:20.388Z,98.80
2019-03-16T11:28:20.297Z,98.70
2019-03-16T11:29:20.445Z,97.94
2019-03-16T11:30:20.325Z,97.99
2019-03-16T11:31:20.272Z,97.99
2019-03-16T11:32:20.375Z,97.78
2019-03-16T11:33:20.254Z,97.73
2019-03-16T11:34:20.333Z,97.67
2019-03-16T11:35:20.249Z,97.63
2019-03-16T11:36:20.205Z,97.78
2019-03-16T11:37:20.257Z,97.99
2019-03-16T11:38:20.237Z,97.37
2019-03-16T11:39:20.201Z,96.55
2019-03-16T11:40:20.161Z,96.23
2019-03-16T11:41:20.342Z,96.44
2019-03-16T11:42:20.237Z,96.23
2019-03-16T11:43:20.192Z,96.14
2019-03-16T11:44:20.202Z,96.08
2019-03-16T11:45:20.164Z,96.18
2019-03-16T11:46:20.382Z,95.77
2019-03-16T11:47:20.122Z,95.46
2019-03-16T11:48:20.115Z,96.18
2019-03-16T11:49:20.116Z,97.00
2019-03-16T11:50:20.084Z,96.18
2019-03-16T11:51:20.054Z,96.80
2019-03-16T11:52:20.063Z,96.39
2019-03-16T11:53:20.131Z,96.18
2019-03-16T11:54:20.136Z,96.28
2019-03-16T11:55:20.010Z,96.28
2019-03-16T11:56:20.007Z,96.18
2019-03-16T11:57:20.000Z,96.18
2019-03-16T11:58:19.966Z,96.90
2019-03-16T11:59:21.917Z,95.87
2019-03-16T12:00:20.131Z,95.97
2019-03-16T12:01:19.997Z,95.77
2019-03-16T12:02:19.986Z,95.87
2019-03-16T12:03:20.009Z,95.93
2019-03-16T12:04:19.992Z,96.08
2019-03-16T12:05:19.913Z,95.87
2019-03-16T12:06:19.946Z,95.77
2019-03-16T12:07:19.895Z,96.18
2019-03-16T12:08:19.920Z,95.87
2019-03-16T12:09:19.879Z,96.08
2019-03-16T12:10:19.846Z,95.87
2019-03-16T12:11:19.915Z,96.39
2019-03-16T12:12:19.848Z,96.28
2019-03-16T12:13:20.150Z,95.97
2019-03-16T12:14:19.864Z,95.87
2019-03-16T12:15:19.806Z,96.28
2019-03-16T12:16:19.830Z,96.03
2019-03-16T12:17:19.862Z,96.28
2019-03-16T12:18:19.801Z,96.80
2019-03-16T12:19:19.750Z,96.28
2019-03-16T12:20:19.850Z,95.87
2019-03-16T12:21:19.730Z,95.77
2019-03-16T12:22:19.741Z,95.05
2019-03-16T12:23:19.706Z,94.84
2019-03-16T12:24:19.745Z,94.64
2019-03-16T12:25:19.752Z,94.33
2019-03-16T12:26:20.298Z,93.82
2019-03-16T12:27:19.657Z,94.18
2019-03-16T12:28:19.843Z,94.33
2019-03-16T12:29:19.648Z,94.74
2019-03-16T12:30:19.680Z,94.12
2019-03-16T12:31:19.620Z,93.40
2019-03-16T12:32:19.662Z,94.70
2019-03-16T12:33:19.659Z,94.59
2019-03-16T12:34:19.689Z,94.80
2019-03-16T12:35:19.645Z,94.23
2019-03-16T12:36:19.677Z,95.15
2019-03-16T12:37:19.557Z,94.43
2019-03-16T12:38:19.670Z,94.84
2019-03-16T12:39:19.567Z,95.05
2019-03-16T12:40:19.563Z,94.84
2019-03-16T12:41:19.520Z,95.15
2019-03-16T12:42:19.578Z,95.50
2019-03-16T12:43:19.485Z,95.71
2019-03-16T12:44:19.475Z,95.81
2019-03-16T12:45:20.808Z,95.81
2019-03-16T12:46:19.499Z,95.40
2019-03-16T12:47:19.455Z,95.71
2019-03-16T12:48:19.430Z,94.99
2019-03-16T12:49:19.650Z,95.09
2019-03-16T12:50:19.428Z,94.64
2019-03-16T12:51:19.403Z,94.54
2019-03-16T12:52:19.393Z,94.95